Time;durP1;ratioP1;P1;durP2;ratioP2;P2;SDS_P1;SDS_P2;PMS_P1;PMS_P2;Temp;Humidity;BMP_temperature;BMP_pressure;BME280_temperature;BME280_humidity;BME280_pressure;Samples;Min_cycle;Max_cycle;Signal;HPM_P1;HPM_P2
2022/03/13 00:02:16;;;;;;;22.10;10.65;;;0.60;83.00;;;;;;5006385;28;20032;-38
2022/03/13 00:04:44;;;;;;;11.70;7.00;;;0.60;80.30;;;;;;5009776;28;20033;-37
2022/03/13 00:07:16;;;;;;;13.00;8.07;;;0.50;80.10;;;;;;5009238;28;20033;-36
2022/03/13 00:09:44;;;;;;;16.20;9.68;;;0.60;80.10;;;;;;4993944;28;20548;-39
2022/03/13 00:12:14;;;;;;;49.72;26.27;;;0.60;82.00;;;;;;5011987;28;20033;-37
2022/03/13 00:14:42;;;;;;;19.98;12.00;;;0.60;80.90;;;;;;5003749;28;20379;-37
2022/03/13 00:17:11;;;;;;;22.90;11.32;;;0.70;80.50;;;;;;5001686;28;20112;-38
2022/03/13 00:19:37;;;;;;;17.90;10.70;;;0.70;79.10;;;;;;5006499;28;20041;-36
2022/03/13 00:22:04;;;;;;;26.55;14.02;;;0.70;76.90;;;;;;5008112;28;20151;-40
2022/03/13 00:24:31;;;;;;;17.95;10.95;;;0.80;76.80;;;;;;5004358;28;20476;-37
2022/03/13 00:26:56;;;;;;;20.88;9.93;;;0.80;76.40;;;;;;5004874;28;20034;-37
2022/03/13 00:29:22;;;;;;;18.33;8.35;;;0.80;76.50;;;;;;5007343;28;20080;-39
2022/03/13 00:31:48;;;;;;;15.40;8.43;;;0.90;76.90;;;;;;5001905;28;20046;-38
2022/03/13 00:34:14;;;;;;;15.02;7.60;;;0.80;83.00;;;;;;5004995;28;20502;-40
2022/03/13 00:36:40;;;;;;;10.68;6.93;;;0.20;90.40;;;;;;5000806;28;20027;-36
2022/03/13 00:39:06;;;;;;;13.23;7.05;;;0.00;93.40;;;;;;5011220;28;20037;-37
2022/03/13 00:41:32;;;;;;;13.55;6.75;;;0.10;91.90;;;;;;5010437;28;20022;-38
2022/03/13 00:43:58;;;;;;;13.40;7.82;;;-0.10;92.80;;;;;;5007941;28;20131;-40
2022/03/13 00:46:23;;;;;;;8.80;5.60;;;-0.10;91.50;;;;;;5005746;28;20036;-36
2022/03/13 00:48:49;;;;;;;13.60;8.25;;;0.00;90.30;;;;;;5003730;28;20034;-39
2022/03/13 00:51:15;;;;;;;12.05;6.25;;;0.00;90.30;;;;;;5006351;28;22098;-38
2022/03/13 00:53:43;;;;;;;7.93;5.47;;;0.00;92.30;;;;;;4993969;28;20090;-37
2022/03/13 00:56:10;;;;;;;9.18;6.18;;;0.00;91.30;;;;;;5009689;28;20042;-40
2022/03/13 00:58:38;;;;;;;14.98;6.10;;;0.00;90.00;;;;;;5004921;28;20090;-37
2022/03/13 01:01:04;;;;;;;10.60;5.85;;;0.10;90.70;;;;;;5009983;28;20046;-39
2022/03/13 01:03:47;;;;;;;8.88;5.68;;;0.10;90.20;;;;;;5009603;28;20022;-37
2022/03/13 01:06:13;;;;;;;7.68;5.10;;;0.20;90.30;;;;;;5009013;28;20554;-37
2022/03/13 01:08:40;;;;;;;8.75;5.22;;;-0.10;91.60;;;;;;5007515;28;20116;-37
2022/03/13 01:11:06;;;;;;;12.60;6.57;;;-0.20;93.00;;;;;;5010659;28;20048;-37
2022/03/13 01:13:32;;;;;;;11.50;5.88;;;-0.20;91.80;;;;;;5007357;28;20940;-37
2022/03/13 01:16:29;;;;;;;9.90;5.72;;;0.00;90.90;;;;;;5004732;28;20491;-37
2022/03/13 01:18:58;;;;;;;9.60;5.68;;;-0.10;90.70;;;;;;4985402;28;20046;-37
2022/03/13 01:21:25;;;;;;;9.43;5.20;;;0.00;91.30;;;;;;5004705;28;20038;-38
2022/03/13 01:23:59;;;;;;;10.45;6.72;;;0.00;90.20;;;;;;5008747;28;20064;-36
2022/03/13 01:26:25;;;;;;;10.20;6.05;;;0.10;89.90;;;;;;5004540;28;20041;-37
2022/03/13 01:28:56;;;;;;;9.18;6.07;;;0.00;90.10;;;;;;5012277;28;20034;-40
2022/03/13 01:31:25;;;;;;;7.82;5.18;;;0.10;88.50;;;;;;5012662;28;20116;-38
2022/03/13 01:33:51;;;;;;;10.95;5.90;;;0.10;87.80;;;;;;5006879;28;20064;-37
2022/03/13 01:36:17;;;;;;;9.32;5.38;;;0.00;89.00;;;;;;5014598;28;20044;-36
2022/03/13 01:38:43;;;;;;;10.20;4.90;;;0.00;90.00;;;;;;5006895;28;20034;-37
2022/03/13 01:41:09;;;;;;;9.32;5.97;;;-0.20;90.60;;;;;;5014019;28;20584;-37
2022/03/13 01:43:35;;;;;;;5.88;3.80;;;-0.40;91.30;;;;;;5010199;28;20026;-37
2022/03/13 01:46:03;;;;;;;8.23;5.20;;;-0.70;93.60;;;;;;5006967;28;20035;-37
2022/03/13 01:48:29;;;;;;;9.52;5.97;;;-0.80;94.30;;;;;;4991442;28;20691;-38
2022/03/13 01:50:55;;;;;;;10.75;5.25;;;-1.00;96.40;;;;;;5012062;28;20698;-37
2022/03/13 01:53:21;;;;;;;9.73;6.10;;;-1.00;97.00;;;;;;5013086;28;20022;-39
2022/03/13 01:55:55;;;;;;;12.35;6.22;;;-1.00;96.60;;;;;;5010515;28;20040;-37
2022/03/13 01:58:21;;;;;;;9.07;5.47;;;-1.00;96.70;;;;;;5007999;28;20380;-38
2022/03/13 02:00:47;;;;;;;12.10;5.43;;;-1.10;96.10;;;;;;5003645;28;20044;-36
2022/03/13 02:03:15;;;;;;;11.38;5.28;;;-1.00;95.50;;;;;;5009214;28;20037;-40
2022/03/13 02:05:48;;;;;;;10.57;4.97;;;-1.00;95.10;;;;;;5013408;28;20034;-37
2022/03/13 02:08:21;;;;;;;10.00;6.60;;;-0.90;94.60;;;;;;5011018;28;20040;-38
2022/03/13 02:10:48;;;;;;;7.05;4.85;;;-1.00;95.10;;;;;;5015026;28;20029;-37
2022/03/13 02:13:17;;;;;;;7.50;5.40;;;-0.90;94.80;;;;;;5009520;28;20129;-38
2022/03/13 02:15:44;;;;;;;7.68;5.32;;;-0.80;94.40;;;;;;5012439;28;20122;-37
2022/03/13 02:18:11;;;;;;;7.10;5.18;;;-0.80;94.10;;;;;;5006211;28;20153;-40
2022/03/13 02:20:42;;;;;;;9.30;5.63;;;-0.70;94.60;;;;;;5014932;28;20049;-38
2022/03/13 02:23:18;;;;;;;9.30;5.50;;;-1.00;97.10;;;;;;5009495;28;20025;-37
2022/03/13 02:25:46;;;;;;;8.30;5.43;;;-1.00;96.10;;;;;;5013327;28;20060;-39
2022/03/13 02:28:13;;;;;;;7.97;5.50;;;-0.80;95.30;;;;;;5004604;28;20116;-37
2022/03/13 02:30:39;;;;;;;8.32;5.15;;;-1.00;96.50;;;;;;5013269;28;20097;-38
2022/03/13 02:33:04;;;;;;;8.00;5.57;;;-0.90;96.20;;;;;;5007412;28;20033;-37
2022/03/13 02:35:30;;;;;;;8.20;4.65;;;-0.80;94.60;;;;;;5005905;28;20076;-37
2022/03/13 02:37:56;;;;;;;8.75;4.63;;;-0.80;96.60;;;;;;5011723;28;20061;-37
2022/03/13 02:40:24;;;;;;;11.95;6.20;;;-0.80;95.10;;;;;;5012911;28;20041;-36
2022/03/13 02:42:51;;;;;;;8.90;6.05;;;-0.90;94.30;;;;;;5010757;28;20026;-36
2022/03/13 02:45:35;;;;;;;8.60;5.75;;;-0.90;93.80;;;;;;5012307;28;20026;-37
2022/03/13 02:48:03;;;;;;;10.00;5.32;;;-1.00;93.80;;;;;;5005944;28;20033;-37
2022/03/13 02:50:30;;;;;;;16.73;6.32;;;-1.00;93.80;;;;;;5007896;28;20495;-40
2022/03/13 02:52:56;;;;;;;14.68;6.47;;;-1.00;93.90;;;;;;4993618;28;20034;-36
2022/03/13 02:55:21;;;;;;;9.20;5.72;;;-1.20;94.80;;;;;;5015437;28;20040;-37
2022/03/13 02:57:47;;;;;;;13.20;6.22;;;-1.20;95.30;;;;;;5007527;28;20407;-37
2022/03/13 03:00:15;;;;;;;9.50;5.85;;;-1.20;95.00;;;;;;5010155;28;20022;-37
2022/03/13 03:02:42;;;;;;;10.65;6.50;;;-1.20;95.30;;;;;;5009798;28;20022;-37
2022/03/13 03:05:08;;;;;;;9.55;5.90;;;-1.30;95.60;;;;;;5011821;28;20042;-38
2022/03/13 03:07:35;;;;;;;8.13;5.20;;;-1.20;94.80;;;;;;5010000;28;20029;-37
2022/03/13 03:10:05;;;;;;;14.02;6.72;;;-1.20;96.60;;;;;;5011474;28;20096;-37
2022/03/13 03:12:31;;;;;;;10.55;6.43;;;-1.20;95.80;;;;;;5012645;28;20033;-38
2022/03/13 03:14:57;;;;;;;16.50;6.63;;;-1.30;96.60;;;;;;5006980;28;20049;-37
2022/03/13 03:17:22;;;;;;;5.80;4.13;;;-1.50;96.30;;;;;;5009013;28;20070;-37
2022/03/13 03:19:48;;;;;;;8.07;5.47;;;-1.50;97.90;;;;;;5006987;28;20036;-38
2022/03/13 03:22:15;;;;;;;7.65;5.07;;;-1.50;96.90;;;;;;5011227;28;20458;-37
2022/03/13 03:24:41;;;;;;;6.32;4.45;;;-1.50;97.40;;;;;;5011091;28;20056;-36
2022/03/13 03:27:07;;;;;;;8.00;4.22;;;-1.60;97.90;;;;;;4999537;28;20436;-37
2022/03/13 03:29:33;;;;;;;6.10;4.38;;;-1.60;98.00;;;;;;5005202;28;20040;-37
2022/03/13 03:31:59;;;;;;;6.72;4.57;;;-1.70;98.90;;;;;;5004884;28;20068;-37
2022/03/13 03:34:27;;;;;;;9.18;5.25;;;-1.70;98.40;;;;;;5005392;28;20037;-38
2022/03/13 03:36:55;;;;;;;9.38;5.53;;;-1.60;97.30;;;;;;5007686;28;20093;-38
2022/03/13 03:39:23;;;;;;;4.50;3.70;;;-1.60;96.70;;;;;;5005580;28;20422;-37
2022/03/13 03:41:50;;;;;;;8.07;5.37;;;-1.50;96.90;;;;;;5007056;28;20034;-38
2022/03/13 03:44:18;;;;;;;8.48;5.78;;;-1.90;99.80;;;;;;5006797;28;20296;-37
2022/03/13 03:46:45;;;;;;;7.43;4.50;;;-2.10;99.90;;;;;;5005182;28;20069;-37
2022/03/13 03:49:10;;;;;;;11.15;5.82;;;-2.20;99.90;;;;;;4996887;28;20026;-36
2022/03/13 03:51:37;;;;;;;7.85;5.80;;;-2.30;99.90;;;;;;5003634;28;20034;-38
2022/03/13 03:54:04;;;;;;;8.88;4.70;;;-2.30;99.90;;;;;;5003407;28;20514;-37
2022/03/13 03:56:30;;;;;;;6.72;5.40;;;-2.20;99.90;;;;;;5008465;28;20412;-37
2022/03/13 03:58:56;;;;;;;9.73;5.13;;;-2.10;99.90;;;;;;5007292;28;20065;-37
2022/03/13 04:01:22;;;;;;;8.63;4.55;;;-2.10;99.90;;;;;;5004633;28;20034;-37
2022/03/13 04:03:48;;;;;;;5.43;4.50;;;-2.00;99.90;;;;;;5005366;28;20392;-37
2022/03/13 04:06:14;;;;;;;8.63;5.70;;;-2.00;98.90;;;;;;5004478;28;20042;-37
2022/03/13 04:08:40;;;;;;;7.95;3.83;;;-1.90;97.90;;;;;;5006683;28;20030;-36
2022/03/13 04:11:08;;;;;;;6.45;5.13;;;-1.90;97.60;;;;;;5006211;28;20038;-37
2022/03/13 04:13:38;;;;;;;7.75;5.10;;;-1.80;97.20;;;;;;5009182;28;20056;-40
2022/03/13 04:16:06;;;;;;;9.32;5.28;;;-1.80;97.30;;;;;;5006109;28;21191;-38
2022/03/13 04:18:31;;;;;;;8.52;5.10;;;-1.90;98.30;;;;;;5002276;28;20037;-38
2022/03/13 04:20:58;;;;;;;8.88;5.65;;;-2.00;99.50;;;;;;5005129;28;20092;-37
2022/03/13 04:23:23;;;;;;;6.93;4.85;;;-2.00;99.70;;;;;;5010845;28;20034;-38
2022/03/13 04:25:49;;;;;;;13.07;5.40;;;-2.00;99.70;;;;;;5004700;28;20032;-37
2022/03/13 04:28:15;;;;;;;4.63;4.05;;;-2.00;99.60;;;;;;5008060;28;20034;-39
2022/03/13 04:30:40;;;;;;;12.90;4.72;;;-1.90;99.10;;;;;;5000803;28;20041;-37
2022/03/13 04:33:07;;;;;;;6.15;5.55;;;-1.90;99.10;;;;;;5006235;28;20026;-36
2022/03/13 04:35:33;;;;;;;8.30;4.78;;;-1.90;98.30;;;;;;5004682;28;20437;-37
2022/03/13 04:37:59;;;;;;;8.50;4.38;;;-2.10;98.60;;;;;;5008752;28;20045;-37
2022/03/13 04:40:25;;;;;;;5.75;5.00;;;-2.10;98.10;;;;;;5004101;28;20701;-38
2022/03/13 04:42:50;;;;;;;7.18;4.72;;;-2.10;98.30;;;;;;5007204;28;20483;-37
2022/03/13 04:45:18;;;;;;;6.47;4.45;;;-2.10;98.20;;;;;;5004498;28;20049;-37
2022/03/13 04:47:44;;;;;;;7.37;6.07;;;-2.00;97.80;;;;;;5006681;28;20052;-37
2022/03/13 04:50:10;;;;;;;7.50;4.03;;;-2.10;98.20;;;;;;5001989;28;20038;-37
2022/03/13 04:52:36;;;;;;;4.90;4.38;;;-2.20;99.90;;;;;;5004483;28;20538;-37
2022/03/13 04:55:02;;;;;;;6.40;4.90;;;-2.10;98.50;;;;;;5011659;28;20391;-37
2022/03/13 04:57:27;;;;;;;7.85;5.05;;;-2.00;99.00;;;;;;5007750;28;20033;-38
2022/03/13 04:59:53;;;;;;;4.88;4.47;;;-2.00;98.50;;;;;;5004837;28;20084;-37
2022/03/13 05:02:19;;;;;;;5.68;4.63;;;-2.10;99.80;;;;;;5005725;28;20038;-37
2022/03/13 05:04:44;;;;;;;12.52;6.43;;;-2.20;99.90;;;;;;5001616;28;20097;-37
2022/03/13 05:07:10;;;;;;;7.95;5.43;;;-2.30;99.90;;;;;;5006933;28;20026;-38
2022/03/13 05:09:36;;;;;;;7.45;4.95;;;-2.40;99.90;;;;;;5004132;28;20426;-37
2022/03/13 05:12:05;;;;;;;8.27;5.10;;;-2.40;99.90;;;;;;5005083;28;20030;-40
2022/03/13 05:14:31;;;;;;;6.43;5.57;;;-2.40;99.90;;;;;;5009433;28;20880;-37
2022/03/13 05:16:57;;;;;;;12.52;4.97;;;-2.40;99.90;;;;;;5007799;28;20026;-37
2022/03/13 05:19:22;;;;;;;7.47;5.70;;;-2.40;99.90;;;;;;5005283;28;20026;-38
2022/03/13 05:21:48;;;;;;;11.57;6.40;;;-2.40;99.70;;;;;;5001223;28;20065;-38
2022/03/13 05:24:13;;;;;;;9.98;5.25;;;-2.40;98.80;;;;;;5010106;28;20034;-38
2022/03/13 05:26:39;;;;;;;10.32;6.05;;;-2.40;99.30;;;;;;5009759;28;20038;-37
2022/03/13 05:29:05;;;;;;;9.70;5.57;;;-2.50;98.90;;;;;;5009003;28;20502;-37
2022/03/13 05:31:30;;;;;;;10.25;5.85;;;-2.40;98.90;;;;;;5002636;28;20034;-37
2022/03/13 05:33:56;;;;;;;10.93;5.82;;;-2.50;99.90;;;;;;5007771;28;20407;-39
2022/03/13 05:36:22;;;;;;;9.07;5.00;;;-2.50;99.90;;;;;;5009055;28;20041;-37
2022/03/13 05:38:47;;;;;;;8.93;5.28;;;-2.50;99.90;;;;;;5008502;28;20184;-40
2022/03/13 05:41:13;;;;;;;12.02;6.18;;;-2.50;99.20;;;;;;5004390;28;20029;-38
2022/03/13 05:43:42;;;;;;;12.02;5.45;;;-2.70;99.60;;;;;;4988653;28;20061;-37
2022/03/13 05:46:08;;;;;;;10.57;5.82;;;-2.60;99.10;;;;;;5011342;28;20023;-36
2022/03/13 05:48:34;;;;;;;6.72;5.40;;;-2.50;99.70;;;;;;4991911;28;20060;-37
2022/03/13 05:51:00;;;;;;;9.13;5.95;;;-2.50;99.10;;;;;;5005436;28;20025;-37
2022/03/13 05:53:25;;;;;;;6.95;4.30;;;-2.50;98.80;;;;;;5008576;28;20049;-37
2022/03/13 05:55:52;;;;;;;7.03;4.25;;;-2.50;99.30;;;;;;5005337;28;20068;-40
2022/03/13 05:58:19;;;;;;;6.50;4.78;;;-2.50;99.90;;;;;;5007805;28;20034;-37
2022/03/13 06:00:58;;;;;;;8.15;4.82;;;-2.60;99.80;;;;;;5007912;28;20034;-38
2022/03/13 06:03:24;;;;;;;10.20;5.20;;;-2.50;99.60;;;;;;5006527;28;20475;-37
2022/03/13 06:05:50;;;;;;;6.70;4.75;;;-2.50;99.20;;;;;;5006706;28;20029;-37
2022/03/13 06:08:15;;;;;;;6.07;4.90;;;-2.60;99.30;;;;;;5007438;28;20139;-39
2022/03/13 06:10:41;;;;;;;7.20;4.75;;;-2.50;99.90;;;;;;5008755;28;20038;-36
2022/03/13 06:13:06;;;;;;;4.35;3.88;;;-2.40;99.30;;;;;;5006539;28;20033;-37
2022/03/13 06:15:32;;;;;;;9.23;4.70;;;-2.50;99.90;;;;;;4987303;28;20069;-38
2022/03/13 06:17:58;;;;;;;6.03;4.53;;;-2.50;99.60;;;;;;5007230;28;20123;-37
2022/03/13 06:20:24;;;;;;;15.88;5.13;;;-2.50;99.60;;;;;;5005916;28;20026;-40
2022/03/13 06:22:49;;;;;;;8.88;5.57;;;-2.50;99.90;;;;;;5001675;28;20045;-38
2022/03/13 06:25:17;;;;;;;8.07;6.90;;;-2.40;99.90;;;;;;5005750;28;20058;-37
2022/03/13 06:27:43;;;;;;;6.65;5.75;;;-2.40;99.90;;;;;;5002232;28;20018;-37
2022/03/13 06:30:13;;;;;;;12.75;6.97;;;-2.50;99.90;;;;;;5006152;28;20034;-38
2022/03/13 06:32:50;;;;;;;11.77;5.15;;;-2.40;99.90;;;;;;5002691;28;20049;-38
2022/03/13 06:35:17;;;;;;;7.25;4.32;;;-2.40;99.90;;;;;;5003016;28;20075;-37
2022/03/13 06:37:43;;;;;;;7.65;5.75;;;-2.20;99.90;;;;;;4985820;28;20072;-39
2022/03/13 06:40:10;;;;;;;6.55;5.65;;;-2.20;99.90;;;;;;5004239;28;21256;-38
2022/03/13 06:42:39;;;;;;;9.68;5.57;;;-2.10;99.90;;;;;;5005315;28;20581;-37
2022/03/13 06:45:06;;;;;;;10.80;6.03;;;-2.00;99.90;;;;;;5005496;28;20515;-36
2022/03/13 06:47:34;;;;;;;10.35;5.60;;;-2.00;99.90;;;;;;4987118;28;20080;-37
2022/03/13 06:50:00;;;;;;;9.47;5.90;;;-1.90;99.90;;;;;;5005135;28;20014;-38
2022/03/13 06:52:25;;;;;;;7.97;5.35;;;-1.70;99.90;;;;;;5005553;28;20284;-37
2022/03/13 06:54:52;;;;;;;4.22;3.83;;;-1.60;99.90;;;;;;5004962;28;20718;-39
2022/03/13 06:57:18;;;;;;;10.80;6.68;;;-1.50;99.90;;;;;;5002694;28;20053;-40
2022/03/13 06:59:44;;;;;;;9.50;5.78;;;-1.40;99.20;;;;;;5005236;28;20060;-37
2022/03/13 07:02:13;;;;;;;8.32;6.43;;;-1.30;99.90;;;;;;5002909;28;20444;-37
2022/03/13 07:04:39;;;;;;;13.00;6.03;;;-1.30;99.90;;;;;;5003433;28;20030;-37
2022/03/13 07:07:05;;;;;;;9.02;6.15;;;-1.30;99.90;;;;;;5006869;28;20503;-37
2022/03/13 07:09:32;;;;;;;12.07;7.38;;;-1.30;99.90;;;;;;5008885;28;20108;-37
2022/03/13 07:11:58;;;;;;;11.70;7.00;;;-1.30;99.90;;;;;;5006154;28;20030;-37
2022/03/13 07:14:24;;;;;;;12.75;6.88;;;-1.20;99.90;;;;;;5006809;28;20101;-38
2022/03/13 07:16:50;;;;;;;6.78;5.82;;;-1.10;99.90;;;;;;5010816;28;20038;-38
2022/03/13 07:19:16;;;;;;;11.05;6.20;;;-1.00;99.90;;;;;;5009005;28;20102;-38
2022/03/13 07:21:42;;;;;;;10.13;5.93;;;-0.80;99.90;;;;;;4999816;28;20061;-37
2022/03/13 07:24:08;;;;;;;6.70;5.45;;;-0.60;99.90;;;;;;5001225;28;20026;-39
2022/03/13 07:26:33;;;;;;;12.75;5.85;;;-0.40;99.90;;;;;;4998317;28;20048;-38
2022/03/13 07:29:02;;;;;;;6.40;5.30;;;-0.20;99.90;;;;;;5002920;28;20152;-38
2022/03/13 07:31:31;;;;;;;9.95;6.50;;;-0.10;99.90;;;;;;5001281;28;20044;-38
2022/03/13 07:33:57;;;;;;;6.80;5.28;;;0.10;99.90;;;;;;5000531;28;20037;-36
2022/03/13 07:36:23;;;;;;;6.28;5.38;;;0.40;99.90;;;;;;5001966;28;20061;-37
2022/03/13 07:38:49;;;;;;;10.65;5.97;;;0.70;99.90;;;;;;5004081;28;20042;-38
2022/03/13 07:41:15;;;;;;;15.35;7.28;;;0.80;96.60;;;;;;5002272;28;20040;-37
2022/03/13 07:43:40;;;;;;;8.80;5.88;;;1.00;96.10;;;;;;5001712;28;20030;-36
2022/03/13 07:46:06;;;;;;;12.80;7.28;;;1.20;96.30;;;;;;5000740;28;20032;-37
2022/03/13 07:48:35;;;;;;;12.90;7.55;;;1.30;96.20;;;;;;5004268;28;20026;-40
2022/03/13 07:51:04;;;;;;;16.83;7.82;;;1.40;95.80;;;;;;5010556;28;20030;-37
2022/03/13 07:53:30;;;;;;;12.70;7.80;;;1.40;95.30;;;;;;4998769;28;20045;-37
2022/03/13 07:55:56;;;;;;;15.82;8.02;;;1.60;96.60;;;;;;5007158;28;20105;-38
2022/03/13 07:58:22;;;;;;;17.40;8.63;;;1.80;96.40;;;;;;5000755;28;20104;-40
2022/03/13 08:00:48;;;;;;;15.43;8.90;;;2.00;94.10;;;;;;4999205;28;20034;-39
2022/03/13 08:03:15;;;;;;;19.80;10.25;;;2.10;95.50;;;;;;4982025;28;20032;-37
2022/03/13 08:05:40;;;;;;;14.88;9.75;;;2.40;96.40;;;;;;5002368;28;20034;-37
2022/03/13 08:08:06;;;;;;;17.33;9.52;;;2.60;96.80;;;;;;5002349;28;20029;-37
2022/03/13 08:10:32;;;;;;;16.40;8.50;;;2.80;95.70;;;;;;5000807;28;20026;-37
2022/03/13 08:12:57;;;;;;;17.98;9.65;;;2.90;92.60;;;;;;5003135;28;20036;-37
2022/03/13 08:15:23;;;;;;;21.98;10.77;;;3.20;94.70;;;;;;5002433;28;20135;-37
2022/03/13 08:17:49;;;;;;;20.85;11.02;;;3.50;92.20;;;;;;5001061;28;20061;-38
2022/03/13 08:20:15;;;;;;;19.23;10.68;;;3.60;91.90;;;;;;5002039;28;20026;-36
2022/03/13 08:22:40;;;;;;;20.45;10.27;;;3.70;91.00;;;;;;5000353;28;20139;-38
2022/03/13 08:25:07;;;;;;;15.13;8.93;;;3.80;90.80;;;;;;5000244;28;20103;-38
2022/03/13 08:27:34;;;;;;;20.30;9.70;;;4.00;92.00;;;;;;5001597;28;20041;-38
2022/03/13 08:30:07;;;;;;;18.33;10.40;;;4.20;85.90;;;;;;5003690;28;20045;-37
2022/03/13 08:32:34;;;;;;;13.18;8.07;;;4.20;90.70;;;;;;5000977;28;20066;-37
2022/03/13 08:34:59;;;;;;;18.52;9.38;;;4.40;83.00;;;;;;5000534;28;20037;-37
2022/03/13 08:37:25;;;;;;;17.70;10.30;;;4.50;79.60;;;;;;5005164;28;20041;-37
2022/03/13 08:39:51;;;;;;;20.17;10.18;;;4.60;79.50;;;;;;5008834;28;20026;-38
2022/03/13 08:42:17;;;;;;;17.67;9.10;;;4.70;78.70;;;;;;5009908;28;20026;-40
2022/03/13 08:44:43;;;;;;;15.13;8.18;;;4.80;81.20;;;;;;5007581;28;20026;-38
2022/03/13 08:47:08;;;;;;;13.93;8.70;;;5.00;75.30;;;;;;5011497;28;20575;-39
2022/03/13 08:49:34;;;;;;;17.20;9.45;;;5.10;77.80;;;;;;5009474;28;20522;-37
2022/03/13 08:52:00;;;;;;;17.25;9.73;;;5.30;74.50;;;;;;5010037;28;20034;-36
2022/03/13 08:54:25;;;;;;;14.82;7.65;;;5.40;71.80;;;;;;5009078;28;20022;-37
2022/03/13 08:56:51;;;;;;;18.85;8.70;;;5.60;74.40;;;;;;5008257;28;20045;-38
2022/03/13 08:59:20;;;;;;;17.17;9.90;;;5.60;69.80;;;;;;5006276;28;20080;-37
2022/03/13 09:01:47;;;;;;;14.95;8.80;;;5.80;71.10;;;;;;5008284;28;20030;-36
2022/03/13 09:04:13;;;;;;;13.48;8.90;;;6.10;70.30;;;;;;5000465;28;20030;-37
2022/03/13 09:06:39;;;;;;;17.83;9.75;;;6.20;67.40;;;;;;5004661;28;20570;-38
2022/03/13 09:09:08;;;;;;;18.75;9.40;;;6.20;67.70;;;;;;5004535;28;20046;-37
2022/03/13 09:11:34;;;;;;;17.88;9.55;;;6.50;64.10;;;;;;5004311;28;20034;-36
2022/03/13 09:14:00;;;;;;;16.63;9.70;;;6.60;63.20;;;;;;5000937;28;20040;-36
2022/03/13 09:16:26;;;;;;;13.95;8.70;;;6.80;63.10;;;;;;5006569;28;20030;-37
2022/03/13 09:18:53;;;;;;;16.52;9.82;;;6.90;63.90;;;;;;5004070;28;20049;-39
2022/03/13 09:21:18;;;;;;;16.13;9.23;;;7.10;59.90;;;;;;5006278;28;20030;-38
2022/03/13 09:23:44;;;;;;;16.38;9.02;;;7.10;61.50;;;;;;5004539;28;20025;-38
2022/03/13 09:26:10;;;;;;;14.70;8.90;;;7.20;60.30;;;;;;5006979;28;20033;-38
2022/03/13 09:28:35;;;;;;;15.85;9.20;;;7.50;59.80;;;;;;4991227;28;20486;-38
2022/03/13 09:31:01;;;;;;;16.70;9.10;;;7.70;60.40;;;;;;5004493;28;20121;-37
2022/03/13 09:33:27;;;;;;;18.90;9.45;;;7.80;57.30;;;;;;5005720;28;20037;-37
2022/03/13 09:35:53;;;;;;;17.23;9.88;;;7.80;57.50;;;;;;5004716;28;20042;-37
2022/03/13 09:38:19;;;;;;;14.45;9.40;;;7.90;55.60;;;;;;5005348;28;20042;-39
2022/03/13 09:40:45;;;;;;;17.73;9.30;;;8.00;53.90;;;;;;5006562;28;20471;-37
2022/03/13 09:43:10;;;;;;;19.55;9.82;;;8.10;55.20;;;;;;5003026;28;20037;-37
2022/03/13 09:45:36;;;;;;;18.15;10.18;;;8.20;53.40;;;;;;5007970;28;20045;-36
2022/03/13 09:48:03;;;;;;;14.93;8.07;;;8.40;55.50;;;;;;4992461;28;20033;-38
2022/03/13 09:50:29;;;;;;;19.48;9.68;;;8.60;52.50;;;;;;5007360;28;20064;-37
2022/03/13 09:52:55;;;;;;;17.58;9.00;;;8.80;53.20;;;;;;5004481;28;20174;-38
2022/03/13 09:55:21;;;;;;;17.77;8.98;;;8.90;50.80;;;;;;5006365;28;20030;-37
2022/03/13 09:57:48;;;;;;;15.30;8.30;;;8.90;50.10;;;;;;4970582;28;20088;-39
2022/03/13 10:00:16;;;;;;;14.95;8.13;;;9.00;50.30;;;;;;5005692;28;20037;-39
2022/03/13 10:02:42;;;;;;;;;;;9.20;50.30;;;;;;5000515;28;20434;-36
2022/03/13 10:05:10;;;;;;;16.25;8.20;;;9.30;49.50;;;;;;5003013;28;19909;-40
2022/03/13 10:07:53;;;;;;;13.02;8.00;;;9.50;49.40;;;;;;5005167;28;20030;-36
2022/03/13 10:10:20;;;;;;;17.23;8.73;;;9.80;48.20;;;;;;5002569;28;20033;-37
2022/03/13 10:12:46;;;;;;;13.63;7.78;;;10.10;47.80;;;;;;5005852;28;20034;-36
2022/03/13 10:15:13;;;;;;;14.20;8.43;;;10.20;47.30;;;;;;5007534;28;20033;-37
2022/03/13 10:17:41;;;;;;;12.65;6.80;;;10.30;47.20;;;;;;4992143;28;20048;-37
2022/03/13 10:20:25;;;;;;;14.35;7.38;;;10.50;46.00;;;;;;4991028;28;20026;-36
2022/03/13 10:22:59;;;;;;;17.27;7.93;;;10.70;45.60;;;;;;4975327;28;20471;-36
2022/03/13 10:25:34;;;;;;;4.22;2.28;;;10.90;45.10;;;;;;5004871;28;20044;-36
2022/03/13 10:28:25;;;;;;;8.35;5.97;;;10.60;41.60;;;;;;5009330;28;20030;-39
2022/03/13 10:31:00;;;;;;;10.75;6.63;;;10.40;42.20;;;;;;5001082;28;20046;-36
2022/03/13 10:33:43;;;;;;;13.23;6.80;;;10.60;43.60;;;;;;5009057;28;20029;-37
2022/03/13 10:36:19;;;;;;;13.07;7.75;;;10.80;42.50;;;;;;4985947;28;20035;-36
2022/03/13 10:38:47;;;;;;;16.63;6.05;;;10.90;41.80;;;;;;4991171;28;20030;-37
2022/03/13 10:41:13;;;;;;;12.65;7.38;;;11.10;41.00;;;;;;5006938;28;20391;-37
2022/03/13 10:43:46;;;;;;;16.48;7.22;;;11.10;42.80;;;;;;5008175;28;20034;-40
2022/03/13 10:46:23;;;;;;;15.35;7.55;;;11.30;41.20;;;;;;5003500;28;20041;-37
2022/03/13 10:48:49;;;;;;;11.77;7.63;;;11.40;43.60;;;;;;4985573;28;20045;-37
2022/03/13 10:51:17;;;;;;;15.80;7.18;;;11.70;40.10;;;;;;5003977;28;20118;-38
2022/03/13 10:53:43;;;;;;;14.00;7.93;;;11.80;41.40;;;;;;5007191;28;20034;-37
2022/03/13 10:56:12;;;;;;;13.15;7.75;;;12.00;42.00;;;;;;5003385;28;20041;-38
2022/03/13 10:58:48;;;;;;;16.00;7.53;;;12.10;42.80;;;;;;5005818;28;20557;-37
2022/03/13 11:01:16;;;;;;;18.42;8.57;;;12.30;41.50;;;;;;5005258;28;20037;-37
2022/03/13 11:03:51;;;;;;;13.05;7.78;;;11.90;40.30;;;;;;5000619;28;20088;-37
2022/03/13 11:06:17;;;;;;;16.40;8.43;;;12.00;41.70;;;;;;5002570;28;20021;-39
2022/03/13 11:08:43;;;;;;;14.75;8.68;;;12.10;40.80;;;;;;4998718;28;20052;-38
2022/03/13 11:11:16;;;;;;;13.02;7.45;;;12.00;40.80;;;;;;5006179;28;20061;-37
2022/03/13 11:13:43;;;;;;;13.38;7.57;;;11.90;39.60;;;;;;4999161;28;20038;-37
2022/03/13 11:16:17;;;;;;;13.90;7.78;;;12.00;39.50;;;;;;4983108;28;20025;-36
2022/03/13 11:18:45;;;;;;;17.58;9.15;;;12.30;40.50;;;;;;5000153;28;20050;-40
2022/03/13 11:21:10;;;;;;;16.25;7.53;;;12.40;38.30;;;;;;4999925;28;20030;-37
2022/03/13 11:23:36;;;;;;;16.70;8.10;;;12.40;37.70;;;;;;4999028;28;20029;-39
2022/03/13 11:26:04;;;;;;;12.65;7.32;;;12.40;38.20;;;;;;4985514;28;20036;-37
2022/03/13 11:28:31;;;;;;;16.33;8.00;;;12.50;37.50;;;;;;5005341;28;20538;-36
2022/03/13 11:30:57;;;;;;;15.00;7.93;;;12.40;37.60;;;;;;4982134;28;20472;-37
2022/03/13 11:33:44;;;;;;;15.50;8.10;;;12.40;39.80;;;;;;4998761;28;20112;-37
2022/03/13 11:36:32;;;;;;;15.85;7.95;;;12.50;39.40;;;;;;5001492;28;20578;-38
2022/03/13 11:38:59;;;;;;;17.88;8.48;;;12.90;40.30;;;;;;5001228;28;20398;-36
2022/03/13 11:41:42;;;;;;;16.55;8.50;;;12.70;41.00;;;;;;4999230;28;20034;-37
2022/03/13 11:44:23;;;;;;;14.43;8.32;;;12.60;38.80;;;;;;5000197;28;20030;-36
2022/03/13 11:46:53;;;;;;;17.98;9.48;;;12.60;40.70;;;;;;4980676;28;20069;-39
2022/03/13 11:49:33;;;;;;;14.77;8.27;;;12.70;39.70;;;;;;5000113;28;20109;-36
2022/03/13 11:52:11;;;;;;;15.10;8.85;;;12.60;39.50;;;;;;5001207;28;20575;-38
2022/03/13 11:55:00;;;;;;;18.20;9.48;;;12.70;40.00;;;;;;5000483;28;20140;-39
2022/03/13 11:57:50;;;;;;;16.92;9.35;;;12.80;39.80;;;;;;5002411;28;20018;-38
2022/03/13 12:00:16;;;;;;;17.10;9.60;;;12.50;37.80;;;;;;4994775;28;20033;-37
2022/03/13 12:02:42;;;;;;;16.77;9.25;;;12.70;38.00;;;;;;4995450;28;20173;-36
2022/03/13 12:05:25;;;;;;;16.05;8.13;;;12.70;38.30;;;;;;4999139;28;20018;-37
2022/03/13 12:08:08;;;;;;;17.65;9.30;;;12.70;37.10;;;;;;5001750;28;20042;-40
2022/03/13 12:10:41;;;;;;;16.67;8.40;;;12.80;39.90;;;;;;5001189;28;20060;-37
2022/03/13 12:13:14;;;;;;;15.57;8.48;;;12.80;38.50;;;;;;4997714;28;20034;-40
2022/03/13 12:15:41;;;;;;;16.33;9.23;;;12.80;39.60;;;;;;4999353;28;20491;-36
2022/03/13 12:18:23;;;;;;;15.85;8.57;;;13.00;38.40;;;;;;4997513;28;20042;-39
2022/03/13 12:20:50;;;;;;;17.77;8.70;;;13.00;39.10;;;;;;4999862;28;20037;-36
2022/03/13 12:23:27;;;;;;;14.90;7.45;;;13.10;39.50;;;;;;4998877;28;20026;-36
2022/03/13 12:26:13;;;;;;;14.80;8.63;;;13.00;35.50;;;;;;5001338;28;20033;-38
2022/03/13 12:28:39;;;;;;;17.17;8.38;;;12.80;36.80;;;;;;5003071;28;20030;-37
2022/03/13 12:31:05;;;;;;;15.75;8.82;;;12.80;39.00;;;;;;4999230;28;20038;-37
2022/03/13 12:33:33;;;;;;;15.82;8.60;;;13.30;40.40;;;;;;4995234;28;20037;-40
2022/03/13 12:36:01;;;;;;;15.52;8.20;;;13.30;38.80;;;;;;5000386;28;20034;-37
2022/03/13 12:38:31;;;;;;;15.35;8.65;;;13.20;38.50;;;;;;4999721;28;20041;-38
2022/03/13 12:41:00;;;;;;;17.50;9.23;;;13.20;38.80;;;;;;5000393;28;20022;-39
2022/03/13 12:43:49;;;;;;;17.55;8.60;;;13.20;38.40;;;;;;5002683;28;20502;-37
2022/03/13 12:46:17;;;;;;;17.27;9.32;;;13.20;35.80;;;;;;5001367;28;20088;-37
2022/03/13 12:48:55;;;;;;;17.52;10.00;;;13.20;38.60;;;;;;5000941;28;20038;-37